createdAt,value
2022-09-17T00:01:31.266Z,12.44
2022-09-17T00:04:02.111Z,12.43
2022-09-17T00:06:32.511Z,12.39
2022-09-17T00:08:59.567Z,12.45
2022-09-17T00:11:31.459Z,12.46
2022-09-17T00:14:03.080Z,12.55
2022-09-17T00:16:43.872Z,12.36
2022-09-17T00:19:22.991Z,12.44
2022-09-17T00:21:52.198Z,12.51
2022-09-17T00:24:22.859Z,12.56
2022-09-17T00:26:53.883Z,12.55
2022-09-17T00:29:22.934Z,12.49
2022-09-17T00:31:50.251Z,12.49
2022-09-17T00:34:17.523Z,12.63
2022-09-17T00:36:44.532Z,12.52
2022-09-17T00:39:12.823Z,12.47
2022-09-17T00:41:43.640Z,12.49
2022-09-17T00:44:56.570Z,12.49
2022-09-17T00:47:38.856Z,12.47
2022-09-17T00:50:13.081Z,12.35
2022-09-17T00:52:51.527Z,12.47
2022-09-17T00:56:00.243Z,12.50
2022-09-17T00:58:27.529Z,12.40
2022-09-17T01:00:54.578Z,12.25
2022-09-17T01:03:22.622Z,12.23
2022-09-17T01:06:17.395Z,12.21
2022-09-17T01:09:02.376Z,12.29
2022-09-17T01:11:39.212Z,12.24
2022-09-17T01:14:32.511Z,12.27
2022-09-17T01:17:13.207Z,12.17
2022-09-17T01:20:04.634Z,12.12
2022-09-17T01:22:57.198Z,12.16
2022-09-17T01:25:38.435Z,12.14
2022-09-17T01:28:32.791Z,12.18
2022-09-17T01:31:23.764Z,12.15
2022-09-17T01:34:27.489Z,12.15
2022-09-17T01:36:59.027Z,12.08
2022-09-17T01:39:42.988Z,12.01
2022-09-17T01:42:26.094Z,12.04
2022-09-17T01:45:02.274Z,12.05
2022-09-17T01:47:52.458Z,12.04
2022-09-17T01:50:30.459Z,12.06
2022-09-17T01:53:00.381Z,11.98
2022-09-17T01:55:35.707Z,11.96
2022-09-17T01:58:15.374Z,11.90
2022-09-17T02:00:49.092Z,11.89
2022-09-17T02:03:41.662Z,11.78
2022-09-17T02:06:14.554Z,11.63
2022-09-17T02:09:26.051Z,11.62
2022-09-17T02:12:03.688Z,11.61
2022-09-17T02:14:50.367Z,11.48
2022-09-17T02:17:26.998Z,11.53
2022-09-17T02:19:56.121Z,11.42
2022-09-17T02:22:37.270Z,11.34
2022-09-17T02:25:22.397Z,11.49
2022-09-17T02:28:03.755Z,11.43
2022-09-17T02:30:32.121Z,11.37
2022-09-17T02:33:01.926Z,11.24
2022-09-17T02:35:33.060Z,11.16
2022-09-17T02:38:01.083Z,11.12
2022-09-17T02:40:34.109Z,11.04
2022-09-17T02:43:06.708Z,10.98
2022-09-17T02:46:00.028Z,10.93
2022-09-17T02:49:07.274Z,10.93
2022-09-17T02:52:16.473Z,10.87
2022-09-17T02:55:01.188Z,10.78
2022-09-17T02:57:53.574Z,10.74
2022-09-17T03:00:23.229Z,10.72
2022-09-17T03:03:00.368Z,10.63
2022-09-17T03:05:29.668Z,10.65
2022-09-17T03:07:57.495Z,10.54
2022-09-17T03:10:24.601Z,10.59
2022-09-17T03:12:53.866Z,10.55
2022-09-17T03:15:20.725Z,10.49
2022-09-17T03:17:53.262Z,10.44
2022-09-17T03:20:23.638Z,10.43
2022-09-17T03:22:52.511Z,10.40
2022-09-17T03:25:19.380Z,10.33
2022-09-17T03:27:46.339Z,10.42
2022-09-17T03:30:13.363Z,10.48
2022-09-17T03:32:41.303Z,10.42
2022-09-17T03:35:08.516Z,10.44
2022-09-17T03:37:35.452Z,10.44
2022-09-17T03:40:02.818Z,10.36
2022-09-17T03:42:29.959Z,10.27
2022-09-17T03:44:57.247Z,10.28
2022-09-17T03:47:28.179Z,10.29
2022-09-17T03:49:55.719Z,10.32
2022-09-17T03:52:22.702Z,10.27
2022-09-17T03:54:49.631Z,10.31
2022-09-17T03:57:16.976Z,10.39
2022-09-17T03:59:43.861Z,10.37
2022-09-17T04:02:10.871Z,10.27
2022-09-17T04:04:37.895Z,10.38
2022-09-17T04:07:08.662Z,10.26
2022-09-17T04:09:35.590Z,10.35
2022-09-17T04:12:03.104Z,10.49
2022-09-17T04:14:29.995Z,10.51
2022-09-17T04:16:59.051Z,10.60
2022-09-17T04:19:25.942Z,10.78
2022-09-17T04:21:53.110Z,10.61
2022-09-17T04:24:20.286Z,10.64
2022-09-17T04:26:47.324Z,10.67
2022-09-17T04:29:14.234Z,10.58
2022-09-17T04:31:41.193Z,10.56
2022-09-17T04:34:08.278Z,10.51
2022-09-17T04:36:35.394Z,10.60
2022-09-17T04:39:02.260Z,10.51
2022-09-17T04:41:29.107Z,10.80
2022-09-17T04:43:59.108Z,10.97
2022-09-17T04:46:27.050Z,10.82
2022-09-17T04:48:58.350Z,10.92
2022-09-17T04:51:25.287Z,11.11
2022-09-17T04:53:52.168Z,11.24
2022-09-17T04:56:20.675Z,11.21
2022-09-17T04:58:52.747Z,11.08
2022-09-17T05:01:19.737Z,11.10
2022-09-17T05:03:46.793Z,10.87
2022-09-17T05:06:20.763Z,10.84
2022-09-17T05:08:47.667Z,10.72
2022-09-17T05:11:14.784Z,10.76
2022-09-17T05:13:41.706Z,10.70
2022-09-17T05:16:10.749Z,10.72
2022-09-17T05:18:37.712Z,10.60
2022-09-17T05:21:05.315Z,10.60
2022-09-17T05:23:32.202Z,10.59
2022-09-17T05:26:02.575Z,10.65
2022-09-17T05:28:31.555Z,10.66
2022-09-17T05:31:05.593Z,10.59
2022-09-17T05:33:32.706Z,10.61
2022-09-17T05:36:00.071Z,10.63
2022-09-17T05:38:30.313Z,10.73
2022-09-17T05:40:57.355Z,10.68
2022-09-17T05:43:24.284Z,10.74
2022-09-17T05:45:51.760Z,10.75
2022-09-17T05:48:22.779Z,10.80
2022-09-17T05:50:50.738Z,10.86
2022-09-17T05:53:20.802Z,11.05
2022-09-17T05:55:47.736Z,11.04
2022-09-17T05:58:18.601Z,11.23
2022-09-17T06:00:48.744Z,11.18
2022-09-17T06:03:24.875Z,11.11
2022-09-17T06:05:58.311Z,11.09
2022-09-17T06:08:36.831Z,10.94
2022-09-17T06:11:08.422Z,10.95
2022-09-17T06:13:35.947Z,10.96
2022-09-17T06:16:03.978Z,10.98
2022-09-17T06:18:32.222Z,10.95
2022-09-17T06:21:05.525Z,11.20
2022-09-17T06:23:37.152Z,11.29
2022-09-17T06:26:06.403Z,11.20
2022-09-17T06:28:36.721Z,11.18
2022-09-17T06:31:10.595Z,11.24
2022-09-17T06:33:39.772Z,11.12
2022-09-17T06:36:13.892Z,11.26
2022-09-17T06:38:42.817Z,11.33
2022-09-17T06:41:11.101Z,11.35
2022-09-17T06:43:40.247Z,11.53
2022-09-17T06:46:09.052Z,11.52
2022-09-17T06:48:37.708Z,11.56
2022-09-17T06:51:08.910Z,11.43
2022-09-17T06:53:38.783Z,11.56
2022-09-17T06:56:08.437Z,11.65
2022-09-17T06:58:37.446Z,11.66
2022-09-17T07:01:06.057Z,11.82
2022-09-17T07:03:33.689Z,12.04
2022-09-17T07:06:00.932Z,11.92
2022-09-17T07:08:28.063Z,12.23
2022-09-17T07:10:59.148Z,12.54
2022-09-17T07:13:27.335Z,12.51
2022-09-17T07:16:05.398Z,12.52
2022-09-17T07:18:33.781Z,12.57
2022-09-17T07:21:03.893Z,12.60
2022-09-17T07:23:35.066Z,12.86
2022-09-17T07:26:06.720Z,12.91
2022-09-17T07:28:39.027Z,12.96
2022-09-17T07:31:13.733Z,13.06
2022-09-17T07:33:42.393Z,13.34
2022-09-17T07:36:15.016Z,13.48
2022-09-17T07:38:41.954Z,13.51
2022-09-17T07:41:15.734Z,13.61
2022-09-17T07:43:43.798Z,13.43
2022-09-17T07:46:18.723Z,13.28
2022-09-17T07:48:46.884Z,13.15
2022-09-17T07:51:25.883Z,13.12
2022-09-17T07:53:55.410Z,13.01
2022-09-17T07:56:23.852Z,12.85
2022-09-17T07:58:51.878Z,13.10
2022-09-17T08:01:21.188Z,13.19
2022-09-17T08:03:54.235Z,13.41
2022-09-17T08:06:28.358Z,13.35
2022-09-17T08:08:57.264Z,13.41
2022-09-17T08:11:57.147Z,13.38
2022-09-17T08:14:16.093Z,13.40
2022-09-17T08:16:43.187Z,13.27
2022-09-17T08:19:10.868Z,13.47
2022-09-17T08:21:39.860Z,13.50
2022-09-17T08:24:07.148Z,13.55
2022-09-17T08:26:34.220Z,13.56
2022-09-17T08:29:02.532Z,13.47
2022-09-17T08:31:38.826Z,13.59
2022-09-17T08:34:09.883Z,13.69
2022-09-17T08:36:39.018Z,13.85
2022-09-17T08:39:06.025Z,14.05
2022-09-17T08:42:18.136Z,14.30
2022-09-17T08:44:49.871Z,14.34
2022-09-17T08:47:37.863Z,14.22
2022-09-17T08:50:08.338Z,14.65
2022-09-17T08:53:23.369Z,14.99
2022-09-17T08:56:16.181Z,15.07
2022-09-17T08:59:08.227Z,15.40
2022-09-17T09:01:43.472Z,15.44
2022-09-17T09:04:36.835Z,14.94
2022-09-17T09:07:19.687Z,15.10
2022-09-17T09:10:23.378Z,15.19
2022-09-17T09:12:53.182Z,15.49
2022-09-17T09:15:43.679Z,15.57
2022-09-17T09:18:19.538Z,15.94
2022-09-17T09:21:07.261Z,16.14
2022-09-17T09:23:58.525Z,16.01
2022-09-17T09:26:58.724Z,16.28
2022-09-17T09:29:46.311Z,16.34
2022-09-17T09:32:53.371Z,16.04
2022-09-17T09:35:25.463Z,16.26
2022-09-17T09:38:14.962Z,16.42
2022-09-17T09:40:52.324Z,16.65
2022-09-17T09:44:02.781Z,16.35
2022-09-17T09:47:26.343Z,15.80
2022-09-17T09:50:23.314Z,16.17
2022-09-17T09:53:35.842Z,16.50
2022-09-17T09:56:37.431Z,16.08
2022-09-17T09:59:08.671Z,16.30
2022-09-17T10:01:42.455Z,16.33
2022-09-17T10:04:23.534Z,15.99
2022-09-17T10:06:54.873Z,16.44
2022-09-17T10:09:22.697Z,16.43
2022-09-17T10:12:05.219Z,16.37
2022-09-17T10:14:38.355Z,16.17
2022-09-17T10:17:21.649Z,15.93
2022-09-17T10:20:07.794Z,15.68
2022-09-17T10:22:36.694Z,15.70
2022-09-17T10:25:32.033Z,15.67
2022-09-17T10:28:41.121Z,15.32
2022-09-17T10:31:12.321Z,15.01
2022-09-17T10:34:01.940Z,15.03
2022-09-17T10:36:42.905Z,15.13
2022-09-17T10:39:44.503Z,15.67
2022-09-17T10:42:11.415Z,16.06
2022-09-17T10:44:56.795Z,16.50
2022-09-17T10:47:30.058Z,16.51
2022-09-17T10:50:32.326Z,16.41
2022-09-17T10:53:05.008Z,16.40
2022-09-17T10:56:17.518Z,16.26
2022-09-17T10:59:22.424Z,15.74
2022-09-17T11:03:01.725Z,15.72
2022-09-17T11:05:49.251Z,15.69
2022-09-17T11:08:59.344Z,15.88
2022-09-17T11:12:15.717Z,15.80
2022-09-17T11:15:03.677Z,15.89
2022-09-17T11:18:21.493Z,15.94
2022-09-17T11:21:03.378Z,15.77
2022-09-17T11:24:05.628Z,15.57
2022-09-17T11:27:19.718Z,15.27
2022-09-17T11:29:55.935Z,13.28
2022-09-17T11:33:01.727Z,11.36
2022-09-17T11:35:36.124Z,11.19
2022-09-17T11:38:20.627Z,11.65
2022-09-17T11:41:04.242Z,12.16
2022-09-17T11:43:37.970Z,12.70
2022-09-17T11:46:43.929Z,12.59
2022-09-17T11:50:00.016Z,12.52
2022-09-17T11:52:37.999Z,12.56
2022-09-17T11:55:46.706Z,12.51
2022-09-17T11:58:43.970Z,12.51
2022-09-17T12:01:30.621Z,12.56
2022-09-17T12:04:05.655Z,12.73
2022-09-17T12:07:17.526Z,12.98
2022-09-17T12:09:54.875Z,13.36
2022-09-17T12:12:48.554Z,13.46
2022-09-17T12:15:35.025Z,13.72
2022-09-17T12:18:32.322Z,13.84
2022-09-17T12:21:04.513Z,13.89
2022-09-17T12:23:42.023Z,14.09
2022-09-17T12:26:34.499Z,14.39
2022-09-17T12:29:28.735Z,14.59
2022-09-17T12:32:38.136Z,14.47
2022-09-17T12:36:04.364Z,14.53
2022-09-17T12:39:21.566Z,14.73
2022-09-17T12:42:15.261Z,15.05
2022-09-17T12:45:16.081Z,15.29
2022-09-17T12:48:20.105Z,15.18
2022-09-17T12:51:43.246Z,15.58
2022-09-17T12:54:28.571Z,15.61
2022-09-17T12:57:26.282Z,15.92
2022-09-17T13:00:22.939Z,15.90
2022-09-17T13:03:12.655Z,15.69
2022-09-17T13:06:31.742Z,15.76
2022-09-17T13:09:48.081Z,16.07
2022-09-17T13:12:26.959Z,16.17
2022-09-17T13:15:42.265Z,16.04
2022-09-17T13:18:34.628Z,15.93
2022-09-17T13:21:24.355Z,16.00
2022-09-17T13:23:53.687Z,15.99
2022-09-17T13:26:34.239Z,16.18
2022-09-17T13:29:01.955Z,16.24
2022-09-17T13:31:34.993Z,16.12
2022-09-17T13:34:03.628Z,16.31
2022-09-17T13:36:38.269Z,16.28
2022-09-17T13:39:08.937Z,16.42
2022-09-17T13:41:40.822Z,16.22
2022-09-17T13:44:10.197Z,16.20
2022-09-17T13:46:40.435Z,16.07
2022-09-17T13:49:15.978Z,16.05
2022-09-17T13:51:45.935Z,16.04
2022-09-17T13:54:16.837Z,15.98
2022-09-17T13:57:09.532Z,15.81
2022-09-17T13:59:37.976Z,15.80
2022-09-17T14:02:28.705Z,16.21
2022-09-17T14:05:33.007Z,16.18
2022-09-17T14:08:13.511Z,16.15
2022-09-17T14:10:44.479Z,16.36
2022-09-17T14:13:36.560Z,16.41
2022-09-17T14:16:28.585Z,16.43
2022-09-17T14:19:24.094Z,16.41
2022-09-17T14:22:06.679Z,16.85
2022-09-17T14:24:52.515Z,16.80
2022-09-17T14:27:42.529Z,16.42
2022-09-17T14:30:39.699Z,16.42
2022-09-17T14:33:18.886Z,16.62
2022-09-17T14:35:54.504Z,16.31
2022-09-17T14:38:37.104Z,16.02
2022-09-17T14:41:25.879Z,15.95
2022-09-17T14:44:01.270Z,15.93
2022-09-17T14:46:34.080Z,15.89
2022-09-17T14:49:29.626Z,15.76
2022-09-17T14:51:59.104Z,15.78
2022-09-17T14:54:43.709Z,15.92
2022-09-17T14:57:10.539Z,15.85
2022-09-17T15:00:00.056Z,15.68
2022-09-17T15:02:41.269Z,15.66
2022-09-17T15:05:35.488Z,15.49
2022-09-17T15:08:21.267Z,15.53
2022-09-17T15:11:01.001Z,15.77
2022-09-17T15:13:41.560Z,16.10
2022-09-17T15:16:27.679Z,15.97
2022-09-17T15:19:04.250Z,16.10
2022-09-17T15:21:44.275Z,16.01
2022-09-17T15:24:35.054Z,16.17
2022-09-17T15:27:23.456Z,16.11
2022-09-17T15:30:00.288Z,16.17
2022-09-17T15:32:27.697Z,16.10
2022-09-17T15:35:13.607Z,15.96
2022-09-17T15:38:22.738Z,15.95
2022-09-17T15:40:50.708Z,15.94
2022-09-17T15:43:30.736Z,15.84
2022-09-17T15:46:20.213Z,15.72
2022-09-17T15:48:47.229Z,15.41
2022-09-17T15:51:27.778Z,14.84
2022-09-17T15:54:29.301Z,14.63
2022-09-17T15:57:01.167Z,14.59
2022-09-17T15:59:34.077Z,14.75
2022-09-17T16:02:02.487Z,14.87
2022-09-17T16:04:34.579Z,15.01
2022-09-17T16:07:27.949Z,14.73
2022-09-17T16:09:55.149Z,14.64
2022-09-17T16:12:26.634Z,14.65
2022-09-17T16:14:58.060Z,14.77
2022-09-17T16:17:47.497Z,14.70
2022-09-17T16:20:23.577Z,14.82
2022-09-17T16:22:53.509Z,14.94
2022-09-17T16:25:27.438Z,15.00
2022-09-17T16:28:10.912Z,14.75
2022-09-17T16:30:48.459Z,14.65
2022-09-17T16:33:17.977Z,14.90
2022-09-17T16:35:45.191Z,14.77
2022-09-17T16:38:13.206Z,14.88
2022-09-17T16:40:43.107Z,14.98
2022-09-17T16:43:10.800Z,14.78
2022-09-17T16:45:42.927Z,15.12
2022-09-17T16:48:10.897Z,15.03
2022-09-17T16:50:41.419Z,14.95
2022-09-17T16:53:08.436Z,14.83
2022-09-17T16:55:35.324Z,14.69
2022-09-17T16:58:02.315Z,15.01
2022-09-17T17:00:32.436Z,14.69
2022-09-17T17:03:03.226Z,14.97
2022-09-17T17:05:31.171Z,14.81
2022-09-17T17:07:58.136Z,14.70
2022-09-17T17:10:26.644Z,14.50
2022-09-17T17:12:53.756Z,14.61
2022-09-17T17:15:21.761Z,14.51
2022-09-17T17:17:48.738Z,14.71
2022-09-17T17:20:16.858Z,14.79
2022-09-17T17:22:44.798Z,14.76
2022-09-17T17:25:14.079Z,14.58
2022-09-17T17:27:41.618Z,14.36
2022-09-17T17:30:16.500Z,14.26
2022-09-17T17:32:51.170Z,14.28
2022-09-17T17:35:19.298Z,14.17
2022-09-17T17:37:47.463Z,14.20
2022-09-17T17:40:14.711Z,14.14
2022-09-17T17:42:44.251Z,14.13
2022-09-17T17:45:11.679Z,14.02
2022-09-17T17:47:38.561Z,13.96
2022-09-17T17:50:06.140Z,13.98
2022-09-17T17:52:33.204Z,14.04
2022-09-17T17:55:00.111Z,13.32
2022-09-17T17:57:27.098Z,12.45
2022-09-17T17:59:54.048Z,12.21
2022-09-17T18:02:21.149Z,12.44
2022-09-17T18:04:48.151Z,12.76
2022-09-17T18:07:15.139Z,12.59
2022-09-17T18:09:42.077Z,12.43
2022-09-17T18:12:09.213Z,12.16
2022-09-17T18:14:36.130Z,11.97
2022-09-17T18:17:03.057Z,11.99
2022-09-17T18:19:29.987Z,11.96
2022-09-17T18:21:56.880Z,11.94
2022-09-17T18:24:23.917Z,11.89
2022-09-17T18:26:50.960Z,11.76
2022-09-17T18:29:18.014Z,11.98
2022-09-17T18:31:45.264Z,11.77
2022-09-17T18:34:16.911Z,11.99
2022-09-17T18:36:50.781Z,11.82
2022-09-17T18:39:57.334Z,11.83
2022-09-17T18:42:06.494Z,11.99
2022-09-17T18:44:33.513Z,12.01
2022-09-17T18:47:00.564Z,11.97
2022-09-17T18:49:27.689Z,12.04
2022-09-17T18:52:00.737Z,12.12
2022-09-17T18:54:32.807Z,11.93
2022-09-17T18:57:04.833Z,11.89
2022-09-17T18:59:31.918Z,11.83
2022-09-17T19:01:58.830Z,11.82
2022-09-17T19:04:28.203Z,11.85
2022-09-17T19:06:55.738Z,11.77
2022-09-17T19:09:29.740Z,11.91
2022-09-17T19:11:56.589Z,11.92
2022-09-17T19:14:23.501Z,11.78
2022-09-17T19:16:50.403Z,11.84
2022-09-17T19:19:18.422Z,11.70
2022-09-17T19:21:45.313Z,11.75
2022-09-17T19:24:12.299Z,11.60
2022-09-17T19:26:39.479Z,11.73
2022-09-17T19:29:11.452Z,11.71
2022-09-17T19:31:38.521Z,11.68
2022-09-17T19:34:05.486Z,11.80
2022-09-17T19:36:32.421Z,11.85
2022-09-17T19:39:01.434Z,11.89
2022-09-17T19:41:28.441Z,11.99
2022-09-17T19:43:58.772Z,12.09
2022-09-17T19:46:26.796Z,12.12
2022-09-17T19:48:56.538Z,12.21
2022-09-17T19:51:28.380Z,12.13
2022-09-17T19:53:55.747Z,12.19
2022-09-17T19:56:26.126Z,12.08
2022-09-17T19:58:53.439Z,12.11
2022-09-17T20:01:20.820Z,12.14
2022-09-17T20:03:58.942Z,12.13
2022-09-17T20:06:27.287Z,12.13
2022-09-17T20:08:55.223Z,12.18
2022-09-17T20:11:24.734Z,12.16
2022-09-17T20:14:03.346Z,12.17
2022-09-17T20:16:30.797Z,12.02
2022-09-17T20:18:59.448Z,11.87
2022-09-17T20:21:29.455Z,11.75
2022-09-17T20:23:57.638Z,11.78
2022-09-17T20:26:28.436Z,11.72
2022-09-17T20:28:55.494Z,11.89
2022-09-17T20:31:28.563Z,11.85
2022-09-17T20:33:58.876Z,11.77
2022-09-17T20:36:33.354Z,11.78
2022-09-17T20:39:17.944Z,11.72
2022-09-17T20:41:48.239Z,11.71
2022-09-17T20:44:15.194Z,11.62
2022-09-17T20:46:43.160Z,11.58
2022-09-17T20:49:10.207Z,11.63
2022-09-17T20:51:37.067Z,11.47
2022-09-17T20:54:04.465Z,11.46
2022-09-17T20:56:34.143Z,11.44
2022-09-17T20:59:09.444Z,11.42
2022-09-17T21:01:37.813Z,11.46
2022-09-17T21:04:08.606Z,11.48
2022-09-17T21:06:38.892Z,11.38
2022-09-17T21:09:06.351Z,11.40
2022-09-17T21:11:34.606Z,11.35
2022-09-17T21:14:04.550Z,11.36
2022-09-17T21:16:31.601Z,11.37
2022-09-17T21:19:05.147Z,11.41
2022-09-17T21:21:34.560Z,11.42
2022-09-17T21:24:07.713Z,11.39
2022-09-17T21:26:35.110Z,11.41
2022-09-17T21:29:03.256Z,11.41
2022-09-17T21:31:33.789Z,11.35
2022-09-17T21:34:05.519Z,11.30
2022-09-17T21:36:36.609Z,11.30
2022-09-17T21:39:07.919Z,11.39
2022-09-17T21:41:41.612Z,11.41
2022-09-17T21:44:11.603Z,11.44
2022-09-17T21:46:39.392Z,11.39
2022-09-17T21:49:06.719Z,11.39
2022-09-17T21:51:42.318Z,11.38
2022-09-17T21:54:13.148Z,11.40
2022-09-17T21:56:40.144Z,11.46
2022-09-17T21:59:11.243Z,11.48
2022-09-17T22:01:46.028Z,11.61
2022-09-17T22:04:17.508Z,11.54
2022-09-17T22:06:47.557Z,11.55
2022-09-17T22:09:25.672Z,11.58
2022-09-17T22:11:53.570Z,11.71
2022-09-17T22:14:24.475Z,11.73
2022-09-17T22:16:55.171Z,11.68
2022-09-17T22:19:23.964Z,11.72
2022-09-17T22:21:53.922Z,11.71
2022-09-17T22:24:24.227Z,11.75
2022-09-17T22:26:57.442Z,11.75
2022-09-17T22:29:31.611Z,11.69
2022-09-17T22:31:58.843Z,11.63
2022-09-17T22:34:26.441Z,11.73
2022-09-17T22:36:53.335Z,11.59
2022-09-17T22:39:25.416Z,11.69
2022-09-17T22:41:54.671Z,11.75
2022-09-17T22:44:26.776Z,11.66
2022-09-17T22:46:53.845Z,11.63
2022-09-17T22:49:24.876Z,11.72
2022-09-17T22:51:52.201Z,11.97
2022-09-17T22:54:19.388Z,11.94
2022-09-17T22:56:49.067Z,11.91
2022-09-17T22:59:18.015Z,11.95
2022-09-17T23:01:45.065Z,12.05
2022-09-17T23:04:18.031Z,12.10
2022-09-17T23:06:44.968Z,12.10
2022-09-17T23:09:13.932Z,12.15
2022-09-17T23:11:43.044Z,12.04
2022-09-17T23:14:12.637Z,12.07
2022-09-17T23:16:43.933Z,12.08
2022-09-17T23:19:13.067Z,11.99
2022-09-17T23:21:43.266Z,11.96
2022-09-17T23:24:16.782Z,12.08
2022-09-17T23:26:43.668Z,12.27
2022-09-17T23:29:11.020Z,12.06
2022-09-17T23:31:38.351Z,12.01
2022-09-17T23:34:08.278Z,12.17
2022-09-17T23:36:39.564Z,12.02
2022-09-17T23:39:10.412Z,12.16
2022-09-17T23:41:43.335Z,12.00
2022-09-17T23:44:16.065Z,12.08
2022-09-17T23:46:45.772Z,11.87
2022-09-17T23:49:14.812Z,11.97
2022-09-17T23:51:42.516Z,11.99
2022-09-17T23:54:09.543Z,12.30
2022-09-17T23:56:36.859Z,12.01
2022-09-17T23:59:05.057Z,12.12
